sensor_id;sensor_type;location;lat;lon;timestamp;P1;durP1;ratioP1;P2;durP2;ratioP2
47523;SDS011;33253;42.144;25.884;2023-02-28T00:00:09;21.65;;;9.95;;
47523;SDS011;33253;42.144;25.884;2023-02-28T00:02:41;22.08;;;9.80;;
47523;SDS011;33253;42.144;25.884;2023-02-28T00:05:08;18.92;;;8.70;;
47523;SDS011;33253;42.144;25.884;2023-02-28T00:07:34;23.20;;;9.45;;
47523;SDS011;33253;42.144;25.884;2023-02-28T00:10:00;20.98;;;9.90;;
47523;SDS011;33253;42.144;25.884;2023-02-28T00:12:26;19.85;;;9.15;;
47523;SDS011;33253;42.144;25.884;2023-02-28T00:14:52;23.23;;;9.80;;
47523;SDS011;33253;42.144;25.884;2023-02-28T00:17:18;20.80;;;10.60;;
47523;SDS011;33253;42.144;25.884;2023-02-28T00:19:49;26.63;;;10.02;;
47523;SDS011;33253;42.144;25.884;2023-02-28T00:22:16;29.08;;;11.45;;
47523;SDS011;33253;42.144;25.884;2023-02-28T00:27:32;45.10;;;17.08;;
47523;SDS011;33253;42.144;25.884;2023-02-28T00:29:58;26.88;;;9.77;;
47523;SDS011;33253;42.144;25.884;2023-02-28T00:32:23;24.10;;;11.82;;
47523;SDS011;33253;42.144;25.884;2023-02-28T00:34:49;20.33;;;10.25;;
47523;SDS011;33253;42.144;25.884;2023-02-28T00:37:14;24.88;;;11.48;;
47523;SDS011;33253;42.144;25.884;2023-02-28T00:39:40;28.55;;;15.25;;
47523;SDS011;33253;42.144;25.884;2023-02-28T00:42:26;38.97;;;16.63;;
47523;SDS011;33253;42.144;25.884;2023-02-28T00:44:54;69.30;;;24.08;;
47523;SDS011;33253;42.144;25.884;2023-02-28T00:47:19;74.75;;;22.27;;
47523;SDS011;33253;42.144;25.884;2023-02-28T00:49:45;87.85;;;25.33;;
47523;SDS011;33253;42.144;25.884;2023-02-28T00:52:11;98.38;;;28.33;;
47523;SDS011;33253;42.144;25.884;2023-02-28T00:54:37;67.70;;;24.42;;
47523;SDS011;33253;42.144;25.884;2023-02-28T00:57:03;54.63;;;20.15;;
47523;SDS011;33253;42.144;25.884;2023-02-28T00:59:28;25.33;;;13.23;;
47523;SDS011;33253;42.144;25.884;2023-02-28T01:01:55;20.13;;;11.73;;
47523;SDS011;33253;42.144;25.884;2023-02-28T01:04:20;29.70;;;14.18;;
47523;SDS011;33253;42.144;25.884;2023-02-28T01:06:46;51.50;;;17.20;;
47523;SDS011;33253;42.144;25.884;2023-02-28T01:09:11;55.70;;;18.83;;
47523;SDS011;33253;42.144;25.884;2023-02-28T01:11:37;66.50;;;19.55;;
47523;SDS011;33253;42.144;25.884;2023-02-28T01:14:23;43.45;;;15.65;;
47523;SDS011;33253;42.144;25.884;2023-02-28T01:16:48;62.33;;;15.18;;
47523;SDS011;33253;42.144;25.884;2023-02-28T01:19:13;48.53;;;14.70;;
47523;SDS011;33253;42.144;25.884;2023-02-28T01:21:39;29.20;;;10.32;;
47523;SDS011;33253;42.144;25.884;2023-02-28T01:24:05;28.25;;;10.13;;
47523;SDS011;33253;42.144;25.884;2023-02-28T01:26:32;40.22;;;11.48;;
47523;SDS011;33253;42.144;25.884;2023-02-28T01:28:57;44.15;;;15.82;;
47523;SDS011;33253;42.144;25.884;2023-02-28T01:31:23;77.00;;;18.52;;
47523;SDS011;33253;42.144;25.884;2023-02-28T01:33:49;69.97;;;19.20;;
47523;SDS011;33253;42.144;25.884;2023-02-28T01:38:42;53.60;;;19.52;;
47523;SDS011;33253;42.144;25.884;2023-02-28T01:41:08;39.88;;;14.57;;
47523;SDS011;33253;42.144;25.884;2023-02-28T01:46:08;37.05;;;12.15;;
47523;SDS011;33253;42.144;25.884;2023-02-28T01:48:34;14.98;;;6.40;;
47523;SDS011;33253;42.144;25.884;2023-02-28T01:53:36;15.98;;;6.38;;
47523;SDS011;33253;42.144;25.884;2023-02-28T01:56:16;19.55;;;5.90;;
47523;SDS011;33253;42.144;25.884;2023-02-28T01:58:50;22.70;;;7.40;;
47523;SDS011;33253;42.144;25.884;2023-02-28T02:01:17;25.85;;;8.07;;
47523;SDS011;33253;42.144;25.884;2023-02-28T02:03:49;34.25;;;12.00;;
47523;SDS011;33253;42.144;25.884;2023-02-28T02:06:23;27.80;;;9.05;;
47523;SDS011;33253;42.144;25.884;2023-02-28T02:08:52;23.25;;;7.45;;
47523;SDS011;33253;42.144;25.884;2023-02-28T02:11:18;20.30;;;6.72;;
47523;SDS011;33253;42.144;25.884;2023-02-28T02:18:51;16.00;;;5.35;;
47523;SDS011;33253;42.144;25.884;2023-02-28T02:24:33;15.50;;;4.47;;
47523;SDS011;33253;42.144;25.884;2023-02-28T02:27:19;13.38;;;5.00;;
47523;SDS011;33253;42.144;25.884;2023-02-28T02:35:34;16.98;;;5.22;;
47523;SDS011;33253;42.144;25.884;2023-02-28T02:43:29;19.20;;;5.35;;
47523;SDS011;33253;42.144;25.884;2023-02-28T02:46:06;25.25;;;6.72;;
47523;SDS011;33253;42.144;25.884;2023-02-28T02:48:40;17.92;;;6.28;;
47523;SDS011;33253;42.144;25.884;2023-02-28T02:51:11;29.60;;;9.18;;
47523;SDS011;33253;42.144;25.884;2023-02-28T02:53:44;30.75;;;9.13;;
47523;SDS011;33253;42.144;25.884;2023-02-28T02:56:15;37.55;;;12.45;;
47523;SDS011;33253;42.144;25.884;2023-02-28T02:58:44;46.08;;;13.32;;
47523;SDS011;33253;42.144;25.884;2023-02-28T03:03:50;58.92;;;15.68;;
47523;SDS011;33253;42.144;25.884;2023-02-28T03:06:15;48.70;;;17.25;;
47523;SDS011;33253;42.144;25.884;2023-02-28T03:08:41;50.80;;;16.10;;
47523;SDS011;33253;42.144;25.884;2023-02-28T03:11:07;39.97;;;13.15;;
47523;SDS011;33253;42.144;25.884;2023-02-28T03:16:34;30.60;;;10.27;;
47523;SDS011;33253;42.144;25.884;2023-02-28T03:27:17;44.97;;;13.07;;
47523;SDS011;33253;42.144;25.884;2023-02-28T03:29:59;55.97;;;17.95;;
47523;SDS011;33253;42.144;25.884;2023-02-28T03:32:36;22.08;;;9.35;;
47523;SDS011;33253;42.144;25.884;2023-02-28T03:35:09;12.60;;;6.38;;
47523;SDS011;33253;42.144;25.884;2023-02-28T03:37:37;35.58;;;14.07;;
47523;SDS011;33253;42.144;25.884;2023-02-28T03:42:38;34.50;;;14.98;;
47523;SDS011;33253;42.144;25.884;2023-02-28T03:45:19;49.72;;;17.35;;
47523;SDS011;33253;42.144;25.884;2023-02-28T03:48:01;57.28;;;17.80;;
47523;SDS011;33253;42.144;25.884;2023-02-28T03:55:37;44.50;;;16.05;;
47523;SDS011;33253;42.144;25.884;2023-02-28T04:01:07;44.83;;;17.55;;
47523;SDS011;33253;42.144;25.884;2023-02-28T04:03:37;47.42;;;14.48;;
47523;SDS011;33253;42.144;25.884;2023-02-28T04:06:04;48.45;;;15.68;;
47523;SDS011;33253;42.144;25.884;2023-02-28T04:08:32;29.27;;;11.13;;
47523;SDS011;33253;42.144;25.884;2023-02-28T04:11:00;28.95;;;11.88;;
47523;SDS011;33253;42.144;25.884;2023-02-28T04:13:30;18.50;;;8.40;;
47523;SDS011;33253;42.144;25.884;2023-02-28T04:15:56;23.52;;;8.73;;
47523;SDS011;33253;42.144;25.884;2023-02-28T04:18:21;21.45;;;9.13;;
47523;SDS011;33253;42.144;25.884;2023-02-28T04:20:47;23.13;;;9.77;;
47523;SDS011;33253;42.144;25.884;2023-02-28T04:23:12;34.85;;;12.73;;
47523;SDS011;33253;42.144;25.884;2023-02-28T04:25:38;38.53;;;14.30;;
47523;SDS011;33253;42.144;25.884;2023-02-28T04:28:05;24.27;;;9.98;;
47523;SDS011;33253;42.144;25.884;2023-02-28T04:30:31;22.73;;;10.07;;
47523;SDS011;33253;42.144;25.884;2023-02-28T04:32:57;19.75;;;8.57;;
47523;SDS011;33253;42.144;25.884;2023-02-28T04:35:23;16.85;;;9.25;;
47523;SDS011;33253;42.144;25.884;2023-02-28T04:37:48;34.88;;;12.65;;
47523;SDS011;33253;42.144;25.884;2023-02-28T04:40:14;23.23;;;8.63;;
47523;SDS011;33253;42.144;25.884;2023-02-28T04:42:40;27.70;;;11.50;;
47523;SDS011;33253;42.144;25.884;2023-02-28T04:45:06;33.42;;;12.63;;
47523;SDS011;33253;42.144;25.884;2023-02-28T04:47:35;21.50;;;9.23;;
47523;SDS011;33253;42.144;25.884;2023-02-28T04:50:00;41.28;;;14.90;;
47523;SDS011;33253;42.144;25.884;2023-02-28T04:52:27;21.67;;;9.85;;
47523;SDS011;33253;42.144;25.884;2023-02-28T04:54:53;34.50;;;14.05;;
47523;SDS011;33253;42.144;25.884;2023-02-28T04:57:18;36.95;;;13.52;;
47523;SDS011;33253;42.144;25.884;2023-02-28T04:59:43;25.58;;;10.30;;
47523;SDS011;33253;42.144;25.884;2023-02-28T05:02:09;24.27;;;12.55;;
47523;SDS011;33253;42.144;25.884;2023-02-28T05:04:35;32.60;;;14.38;;
47523;SDS011;33253;42.144;25.884;2023-02-28T05:07:01;27.08;;;12.82;;
47523;SDS011;33253;42.144;25.884;2023-02-28T05:09:28;51.90;;;16.30;;
47523;SDS011;33253;42.144;25.884;2023-02-28T05:11:54;36.92;;;15.30;;
47523;SDS011;33253;42.144;25.884;2023-02-28T05:14:19;27.83;;;12.30;;
47523;SDS011;33253;42.144;25.884;2023-02-28T05:16:45;16.15;;;10.77;;
47523;SDS011;33253;42.144;25.884;2023-02-28T05:19:11;15.60;;;11.00;;
47523;SDS011;33253;42.144;25.884;2023-02-28T05:21:38;26.02;;;12.25;;
47523;SDS011;33253;42.144;25.884;2023-02-28T05:24:06;21.15;;;12.52;;
47523;SDS011;33253;42.144;25.884;2023-02-28T05:26:35;22.27;;;13.73;;
47523;SDS011;33253;42.144;25.884;2023-02-28T05:29:02;19.08;;;12.52;;
47523;SDS011;33253;42.144;25.884;2023-02-28T05:31:28;22.92;;;13.57;;
47523;SDS011;33253;42.144;25.884;2023-02-28T05:33:53;24.65;;;13.15;;
47523;SDS011;33253;42.144;25.884;2023-02-28T05:36:19;20.92;;;14.63;;
47523;SDS011;33253;42.144;25.884;2023-02-28T05:38:46;25.63;;;14.45;;
47523;SDS011;33253;42.144;25.884;2023-02-28T05:41:14;20.40;;;14.18;;
47523;SDS011;33253;42.144;25.884;2023-02-28T05:43:40;22.00;;;13.68;;
47523;SDS011;33253;42.144;25.884;2023-02-28T05:46:07;22.63;;;15.05;;
47523;SDS011;33253;42.144;25.884;2023-02-28T05:48:35;23.67;;;15.07;;
47523;SDS011;33253;42.144;25.884;2023-02-28T05:51:01;27.73;;;17.25;;
47523;SDS011;33253;42.144;25.884;2023-02-28T05:53:27;29.63;;;16.10;;
47523;SDS011;33253;42.144;25.884;2023-02-28T05:55:53;23.50;;;14.43;;
47523;SDS011;33253;42.144;25.884;2023-02-28T05:58:19;25.80;;;17.20;;
47523;SDS011;33253;42.144;25.884;2023-02-28T06:00:45;23.60;;;15.40;;
47523;SDS011;33253;42.144;25.884;2023-02-28T06:03:10;26.80;;;15.55;;
47523;SDS011;33253;42.144;25.884;2023-02-28T06:05:36;25.38;;;15.98;;
47523;SDS011;33253;42.144;25.884;2023-02-28T06:08:01;25.90;;;17.10;;
47523;SDS011;33253;42.144;25.884;2023-02-28T06:10:27;32.53;;;17.60;;
47523;SDS011;33253;42.144;25.884;2023-02-28T06:12:52;31.15;;;16.42;;
47523;SDS011;33253;42.144;25.884;2023-02-28T06:15:17;27.67;;;16.38;;
47523;SDS011;33253;42.144;25.884;2023-02-28T06:17:43;34.58;;;19.08;;
47523;SDS011;33253;42.144;25.884;2023-02-28T06:20:10;57.33;;;25.60;;
47523;SDS011;33253;42.144;25.884;2023-02-28T06:22:37;55.80;;;26.05;;
47523;SDS011;33253;42.144;25.884;2023-02-28T06:25:04;47.20;;;22.85;;
47523;SDS011;33253;42.144;25.884;2023-02-28T06:27:31;44.75;;;20.48;;
47523;SDS011;33253;42.144;25.884;2023-02-28T06:29:57;46.22;;;22.58;;
47523;SDS011;33253;42.144;25.884;2023-02-28T06:32:22;55.05;;;24.40;;
47523;SDS011;33253;42.144;25.884;2023-02-28T06:34:48;39.95;;;18.38;;
47523;SDS011;33253;42.144;25.884;2023-02-28T06:37:13;34.45;;;16.73;;
47523;SDS011;33253;42.144;25.884;2023-02-28T06:39:39;27.05;;;16.05;;
47523;SDS011;33253;42.144;25.884;2023-02-28T06:42:04;25.15;;;15.23;;
47523;SDS011;33253;42.144;25.884;2023-02-28T06:44:30;27.52;;;16.08;;
47523;SDS011;33253;42.144;25.884;2023-02-28T06:49:28;27.50;;;14.38;;
47523;SDS011;33253;42.144;25.884;2023-02-28T06:51:54;32.10;;;15.88;;
47523;SDS011;33253;42.144;25.884;2023-02-28T06:54:20;44.35;;;17.33;;
47523;SDS011;33253;42.144;25.884;2023-02-28T06:56:45;40.35;;;17.27;;
47523;SDS011;33253;42.144;25.884;2023-02-28T06:59:12;55.42;;;21.77;;
47523;SDS011;33253;42.144;25.884;2023-02-28T07:01:37;47.38;;;17.48;;
47523;SDS011;33253;42.144;25.884;2023-02-28T07:04:04;34.58;;;15.80;;
47523;SDS011;33253;42.144;25.884;2023-02-28T07:06:30;64.38;;;21.42;;
47523;SDS011;33253;42.144;25.884;2023-02-28T07:08:57;36.72;;;18.13;;
47523;SDS011;33253;42.144;25.884;2023-02-28T07:11:24;28.20;;;16.40;;
47523;SDS011;33253;42.144;25.884;2023-02-28T07:13:55;36.63;;;16.58;;
47523;SDS011;33253;42.144;25.884;2023-02-28T07:16:21;38.15;;;16.20;;
47523;SDS011;33253;42.144;25.884;2023-02-28T07:18:47;31.42;;;15.68;;
47523;SDS011;33253;42.144;25.884;2023-02-28T07:21:13;44.05;;;18.95;;
47523;SDS011;33253;42.144;25.884;2023-02-28T07:23:39;40.22;;;16.73;;
47523;SDS011;33253;42.144;25.884;2023-02-28T07:26:06;42.90;;;17.05;;
47523;SDS011;33253;42.144;25.884;2023-02-28T07:28:36;60.00;;;19.50;;
47523;SDS011;33253;42.144;25.884;2023-02-28T07:31:05;54.80;;;19.67;;
47523;SDS011;33253;42.144;25.884;2023-02-28T07:33:31;49.03;;;18.25;;
47523;SDS011;33253;42.144;25.884;2023-02-28T07:36:03;38.38;;;17.02;;
47523;SDS011;33253;42.144;25.884;2023-02-28T07:38:30;39.80;;;16.75;;
47523;SDS011;33253;42.144;25.884;2023-02-28T07:40:55;29.60;;;13.80;;
47523;SDS011;33253;42.144;25.884;2023-02-28T07:43:21;23.80;;;13.07;;
47523;SDS011;33253;42.144;25.884;2023-02-28T07:45:46;40.38;;;15.02;;
47523;SDS011;33253;42.144;25.884;2023-02-28T07:48:12;26.73;;;12.70;;
47523;SDS011;33253;42.144;25.884;2023-02-28T07:50:37;26.17;;;14.27;;
47523;SDS011;33253;42.144;25.884;2023-02-28T07:53:03;34.95;;;14.60;;
47523;SDS011;33253;42.144;25.884;2023-02-28T07:55:29;22.15;;;12.63;;
47523;SDS011;33253;42.144;25.884;2023-02-28T07:57:56;20.40;;;11.85;;
47523;SDS011;33253;42.144;25.884;2023-02-28T08:00:22;25.65;;;12.07;;
47523;SDS011;33253;42.144;25.884;2023-02-28T08:02:48;18.65;;;10.65;;
47523;SDS011;33253;42.144;25.884;2023-02-28T08:05:13;27.17;;;11.35;;
47523;SDS011;33253;42.144;25.884;2023-02-28T08:07:38;27.27;;;13.30;;
47523;SDS011;33253;42.144;25.884;2023-02-28T08:10:04;28.85;;;13.75;;
47523;SDS011;33253;42.144;25.884;2023-02-28T08:12:30;28.83;;;12.70;;
47523;SDS011;33253;42.144;25.884;2023-02-28T08:14:56;29.67;;;14.60;;
47523;SDS011;33253;42.144;25.884;2023-02-28T08:17:21;31.20;;;14.98;;
47523;SDS011;33253;42.144;25.884;2023-02-28T08:19:46;18.58;;;12.35;;
47523;SDS011;33253;42.144;25.884;2023-02-28T08:22:12;26.38;;;13.70;;
47523;SDS011;33253;42.144;25.884;2023-02-28T08:24:38;34.88;;;15.02;;
47523;SDS011;33253;42.144;25.884;2023-02-28T08:27:05;41.85;;;16.00;;
47523;SDS011;33253;42.144;25.884;2023-02-28T08:29:30;22.98;;;12.70;;
47523;SDS011;33253;42.144;25.884;2023-02-28T08:31:56;28.40;;;14.30;;
47523;SDS011;33253;42.144;25.884;2023-02-28T08:34:22;22.83;;;12.35;;
47523;SDS011;33253;42.144;25.884;2023-02-28T08:36:48;17.45;;;12.25;;
47523;SDS011;33253;42.144;25.884;2023-02-28T08:39:13;16.70;;;11.88;;
47523;SDS011;33253;42.144;25.884;2023-02-28T08:41:39;22.77;;;13.63;;
47523;SDS011;33253;42.144;25.884;2023-02-28T08:44:04;20.77;;;11.77;;
47523;SDS011;33253;42.144;25.884;2023-02-28T08:46:30;18.58;;;11.27;;
47523;SDS011;33253;42.144;25.884;2023-02-28T08:48:56;18.15;;;11.68;;
47523;SDS011;33253;42.144;25.884;2023-02-28T08:51:25;15.32;;;10.73;;
47523;SDS011;33253;42.144;25.884;2023-02-28T08:54:00;16.05;;;10.77;;
47523;SDS011;33253;42.144;25.884;2023-02-28T08:56:27;19.25;;;11.43;;
47523;SDS011;33253;42.144;25.884;2023-02-28T08:58:54;15.52;;;11.15;;
47523;SDS011;33253;42.144;25.884;2023-02-28T09:01:25;21.13;;;11.80;;
47523;SDS011;33253;42.144;25.884;2023-02-28T09:03:52;15.55;;;9.60;;
47523;SDS011;33253;42.144;25.884;2023-02-28T09:06:19;19.77;;;9.77;;
47523;SDS011;33253;42.144;25.884;2023-02-28T09:08:46;14.50;;;9.10;;
47523;SDS011;33253;42.144;25.884;2023-02-28T09:11:12;16.70;;;9.73;;
47523;SDS011;33253;42.144;25.884;2023-02-28T09:13:37;15.20;;;9.05;;
47523;SDS011;33253;42.144;25.884;2023-02-28T09:16:04;13.85;;;9.68;;
47523;SDS011;33253;42.144;25.884;2023-02-28T09:18:31;24.30;;;12.45;;
47523;SDS011;33253;42.144;25.884;2023-02-28T09:21:02;18.88;;;9.88;;
47523;SDS011;33253;42.144;25.884;2023-02-28T09:23:31;20.35;;;9.73;;
47523;SDS011;33253;42.144;25.884;2023-02-28T09:25:56;46.95;;;15.60;;
47523;SDS011;33253;42.144;25.884;2023-02-28T09:28:22;43.50;;;13.80;;
47523;SDS011;33253;42.144;25.884;2023-02-28T09:30:48;38.90;;;14.30;;
47523;SDS011;33253;42.144;25.884;2023-02-28T09:33:16;18.77;;;10.02;;
47523;SDS011;33253;42.144;25.884;2023-02-28T09:35:43;22.83;;;11.50;;
47523;SDS011;33253;42.144;25.884;2023-02-28T09:38:10;14.02;;;9.38;;
47523;SDS011;33253;42.144;25.884;2023-02-28T09:40:37;13.50;;;8.90;;
47523;SDS011;33253;42.144;25.884;2023-02-28T09:43:05;18.27;;;11.05;;
47523;SDS011;33253;42.144;25.884;2023-02-28T09:45:39;15.77;;;9.23;;
47523;SDS011;33253;42.144;25.884;2023-02-28T09:48:11;17.05;;;10.60;;
47523;SDS011;33253;42.144;25.884;2023-02-28T09:50:41;16.02;;;9.95;;
47523;SDS011;33253;42.144;25.884;2023-02-28T09:53:29;21.10;;;10.38;;
47523;SDS011;33253;42.144;25.884;2023-02-28T09:55:59;16.23;;;9.70;;
47523;SDS011;33253;42.144;25.884;2023-02-28T09:58:37;23.85;;;11.25;;
47523;SDS011;33253;42.144;25.884;2023-02-28T10:01:31;20.25;;;10.00;;
47523;SDS011;33253;42.144;25.884;2023-02-28T10:06:50;42.78;;;15.45;;
47523;SDS011;33253;42.144;25.884;2023-02-28T10:09:22;49.28;;;17.10;;
47523;SDS011;33253;42.144;25.884;2023-02-28T10:11:51;37.70;;;15.07;;
47523;SDS011;33253;42.144;25.884;2023-02-28T10:14:18;29.83;;;14.07;;
47523;SDS011;33253;42.144;25.884;2023-02-28T10:16:59;51.77;;;17.87;;
47523;SDS011;33253;42.144;25.884;2023-02-28T10:19:33;23.70;;;11.27;;
47523;SDS011;33253;42.144;25.884;2023-02-28T10:24:38;21.42;;;10.52;;
47523;SDS011;33253;42.144;25.884;2023-02-28T10:27:16;16.48;;;9.18;;
47523;SDS011;33253;42.144;25.884;2023-02-28T10:29:49;14.30;;;9.90;;
47523;SDS011;33253;42.144;25.884;2023-02-28T10:32:20;26.70;;;11.85;;
47523;SDS011;33253;42.144;25.884;2023-02-28T10:37:43;28.05;;;13.38;;
47523;SDS011;33253;42.144;25.884;2023-02-28T10:40:33;33.97;;;14.18;;
47523;SDS011;33253;42.144;25.884;2023-02-28T10:45:31;39.78;;;15.13;;
47523;SDS011;33253;42.144;25.884;2023-02-28T10:56:23;38.45;;;13.45;;
47523;SDS011;33253;42.144;25.884;2023-02-28T10:58:56;17.65;;;10.40;;
47523;SDS011;33253;42.144;25.884;2023-02-28T11:01:42;39.05;;;15.05;;
47523;SDS011;33253;42.144;25.884;2023-02-28T11:06:47;39.30;;;15.45;;
47523;SDS011;33253;42.144;25.884;2023-02-28T11:12:08;18.73;;;9.77;;
47523;SDS011;33253;42.144;25.884;2023-02-28T11:14:51;15.85;;;9.48;;
47523;SDS011;33253;42.144;25.884;2023-02-28T11:17:21;18.60;;;9.98;;
47523;SDS011;33253;42.144;25.884;2023-02-28T11:19:55;12.00;;;8.60;;
47523;SDS011;33253;42.144;25.884;2023-02-28T11:22:23;22.77;;;10.40;;
47523;SDS011;33253;42.144;25.884;2023-02-28T11:24:54;38.13;;;13.52;;
47523;SDS011;33253;42.144;25.884;2023-02-28T11:30:00;17.55;;;9.15;;
47523;SDS011;33253;42.144;25.884;2023-02-28T11:32:27;12.70;;;8.88;;
47523;SDS011;33253;42.144;25.884;2023-02-28T11:37:36;11.60;;;8.00;;
47523;SDS011;33253;42.144;25.884;2023-02-28T11:40:12;12.80;;;7.75;;
47523;SDS011;33253;42.144;25.884;2023-02-28T11:45:25;15.02;;;8.75;;
47523;SDS011;33253;42.144;25.884;2023-02-28T12:06:55;31.27;;;10.85;;
47523;SDS011;33253;42.144;25.884;2023-02-28T12:12:40;22.17;;;10.65;;
47523;SDS011;33253;42.144;25.884;2023-02-28T12:28:41;49.15;;;15.05;;
47523;SDS011;33253;42.144;25.884;2023-02-28T12:33:47;22.73;;;11.02;;
47523;SDS011;33253;42.144;25.884;2023-02-28T12:36:18;20.10;;;10.20;;
47523;SDS011;33253;42.144;25.884;2023-02-28T12:38:56;21.20;;;10.00;;
47523;SDS011;33253;42.144;25.884;2023-02-28T12:44:21;28.23;;;11.95;;
47523;SDS011;33253;42.144;25.884;2023-02-28T12:46:57;48.65;;;17.67;;
47523;SDS011;33253;42.144;25.884;2023-02-28T12:49:28;36.35;;;12.98;;
47523;SDS011;33253;42.144;25.884;2023-02-28T12:52:07;28.65;;;12.52;;
47523;SDS011;33253;42.144;25.884;2023-02-28T12:57:17;28.92;;;12.02;;
47523;SDS011;33253;42.144;25.884;2023-02-28T12:59:56;22.38;;;10.85;;
47523;SDS011;33253;42.144;25.884;2023-02-28T13:02:51;39.65;;;16.15;;
47523;SDS011;33253;42.144;25.884;2023-02-28T13:10:56;39.40;;;15.30;;
47523;SDS011;33253;42.144;25.884;2023-02-28T13:13:25;30.70;;;13.15;;
47523;SDS011;33253;42.144;25.884;2023-02-28T13:18:34;48.63;;;16.52;;
47523;SDS011;33253;42.144;25.884;2023-02-28T13:21:23;53.45;;;19.02;;
47523;SDS011;33253;42.144;25.884;2023-02-28T13:28:59;43.38;;;17.92;;
47523;SDS011;33253;42.144;25.884;2023-02-28T13:31:27;43.90;;;17.65;;
47523;SDS011;33253;42.144;25.884;2023-02-28T13:36:39;25.23;;;12.85;;
47523;SDS011;33253;42.144;25.884;2023-02-28T13:47:40;33.45;;;16.13;;
47523;SDS011;33253;42.144;25.884;2023-02-28T13:50:18;30.85;;;20.02;;
47523;SDS011;33253;42.144;25.884;2023-02-28T13:55:37;28.65;;;14.77;;
47523;SDS011;33253;42.144;25.884;2023-02-28T14:06:31;51.55;;;17.38;;
47523;SDS011;33253;42.144;25.884;2023-02-28T14:08:59;71.15;;;19.25;;
47523;SDS011;33253;42.144;25.884;2023-02-28T14:11:35;53.63;;;18.80;;
47523;SDS011;33253;42.144;25.884;2023-02-28T14:14:05;54.10;;;17.40;;
47523;SDS011;33253;42.144;25.884;2023-02-28T14:19:13;35.90;;;13.38;;
47523;SDS011;33253;42.144;25.884;2023-02-28T14:30:17;73.47;;;18.08;;
47523;SDS011;33253;42.144;25.884;2023-02-28T14:33:25;58.45;;;18.00;;
47523;SDS011;33253;42.144;25.884;2023-02-28T14:41:22;32.13;;;13.02;;
47523;SDS011;33253;42.144;25.884;2023-02-28T14:43:57;25.25;;;11.05;;
47523;SDS011;33253;42.144;25.884;2023-02-28T14:46:25;20.00;;;11.23;;
47523;SDS011;33253;42.144;25.884;2023-02-28T14:48:55;29.75;;;11.60;;
47523;SDS011;33253;42.144;25.884;2023-02-28T14:51:21;18.92;;;10.40;;
47523;SDS011;33253;42.144;25.884;2023-02-28T14:53:49;21.58;;;11.18;;
47523;SDS011;33253;42.144;25.884;2023-02-28T14:56:38;13.77;;;9.20;;
47523;SDS011;33253;42.144;25.884;2023-02-28T14:59:05;16.95;;;9.50;;
47523;SDS011;33253;42.144;25.884;2023-02-28T15:01:47;15.93;;;8.48;;
47523;SDS011;33253;42.144;25.884;2023-02-28T15:04:18;35.20;;;12.60;;
47523;SDS011;33253;42.144;25.884;2023-02-28T15:09:39;15.98;;;8.43;;
47523;SDS011;33253;42.144;25.884;2023-02-28T15:12:04;13.70;;;7.78;;
47523;SDS011;33253;42.144;25.884;2023-02-28T15:14:30;10.57;;;7.18;;
47523;SDS011;33253;42.144;25.884;2023-02-28T15:16:58;16.17;;;7.97;;
47523;SDS011;33253;42.144;25.884;2023-02-28T15:19:32;14.63;;;7.93;;
47523;SDS011;33253;42.144;25.884;2023-02-28T15:22:03;13.07;;;7.20;;
47523;SDS011;33253;42.144;25.884;2023-02-28T15:27:06;9.57;;;5.90;;
47523;SDS011;33253;42.144;25.884;2023-02-28T15:29:42;11.70;;;6.85;;
47523;SDS011;33253;42.144;25.884;2023-02-28T15:35:18;9.48;;;5.97;;
47523;SDS011;33253;42.144;25.884;2023-02-28T15:40:27;7.53;;;5.45;;
47523;SDS011;33253;42.144;25.884;2023-02-28T15:48:23;10.18;;;4.63;;
47523;SDS011;33253;42.144;25.884;2023-02-28T15:50:54;7.72;;;4.43;;
47523;SDS011;33253;42.144;25.884;2023-02-28T15:53:25;7.43;;;4.78;;
47523;SDS011;33253;42.144;25.884;2023-02-28T15:55:58;7.88;;;5.20;;
47523;SDS011;33253;42.144;25.884;2023-02-28T15:58:26;8.75;;;4.68;;
47523;SDS011;33253;42.144;25.884;2023-02-28T16:01:24;7.97;;;5.15;;
47523;SDS011;33253;42.144;25.884;2023-02-28T16:03:54;8.88;;;4.15;;
47523;SDS011;33253;42.144;25.884;2023-02-28T16:06:24;8.82;;;4.70;;
47523;SDS011;33253;42.144;25.884;2023-02-28T16:08:57;7.03;;;4.55;;
47523;SDS011;33253;42.144;25.884;2023-02-28T16:11:22;8.00;;;4.40;;
47523;SDS011;33253;42.144;25.884;2023-02-28T16:13:48;7.20;;;3.80;;
47523;SDS011;33253;42.144;25.884;2023-02-28T16:16:21;6.68;;;3.58;;
47523;SDS011;33253;42.144;25.884;2023-02-28T16:18:49;8.80;;;3.60;;
47523;SDS011;33253;42.144;25.884;2023-02-28T16:21:15;13.25;;;4.78;;
47523;SDS011;33253;42.144;25.884;2023-02-28T16:23:41;12.07;;;5.05;;
47523;SDS011;33253;42.144;25.884;2023-02-28T16:26:06;8.90;;;4.57;;
47523;SDS011;33253;42.144;25.884;2023-02-28T16:28:39;13.88;;;5.07;;
47523;SDS011;33253;42.144;25.884;2023-02-28T16:31:05;23.02;;;8.75;;
47523;SDS011;33253;42.144;25.884;2023-02-28T16:33:33;27.67;;;8.63;;
47523;SDS011;33253;42.144;25.884;2023-02-28T16:35:59;16.92;;;5.40;;
47523;SDS011;33253;42.144;25.884;2023-02-28T16:38:25;14.02;;;5.60;;
47523;SDS011;33253;42.144;25.884;2023-02-28T16:40:51;12.98;;;5.22;;
47523;SDS011;33253;42.144;25.884;2023-02-28T16:43:22;20.10;;;6.10;;
47523;SDS011;33253;42.144;25.884;2023-02-28T16:46:10;12.93;;;6.50;;
47523;SDS011;33253;42.144;25.884;2023-02-28T16:48:37;8.80;;;4.30;;
47523;SDS011;33253;42.144;25.884;2023-02-28T16:51:05;6.55;;;4.00;;
47523;SDS011;33253;42.144;25.884;2023-02-28T16:53:31;8.25;;;3.90;;
47523;SDS011;33253;42.144;25.884;2023-02-28T16:55:57;4.53;;;3.13;;
47523;SDS011;33253;42.144;25.884;2023-02-28T16:58:22;5.32;;;2.88;;
47523;SDS011;33253;42.144;25.884;2023-02-28T17:00:51;4.47;;;2.70;;
47523;SDS011;33253;42.144;25.884;2023-02-28T17:03:24;9.63;;;3.35;;
47523;SDS011;33253;42.144;25.884;2023-02-28T17:05:51;4.30;;;2.35;;
47523;SDS011;33253;42.144;25.884;2023-02-28T17:08:18;5.40;;;2.60;;
47523;SDS011;33253;42.144;25.884;2023-02-28T17:10:43;17.65;;;4.32;;
47523;SDS011;33253;42.144;25.884;2023-02-28T17:13:09;12.98;;;4.15;;
47523;SDS011;33253;42.144;25.884;2023-02-28T17:15:35;14.23;;;4.80;;
47523;SDS011;33253;42.144;25.884;2023-02-28T17:18:02;5.22;;;2.80;;
47523;SDS011;33253;42.144;25.884;2023-02-28T17:20:28;18.63;;;5.10;;
47523;SDS011;33253;42.144;25.884;2023-02-28T17:22:54;10.88;;;3.70;;
47523;SDS011;33253;42.144;25.884;2023-02-28T17:25:22;48.35;;;10.77;;
47523;SDS011;33253;42.144;25.884;2023-02-28T17:27:48;25.38;;;6.47;;
47523;SDS011;33253;42.144;25.884;2023-02-28T17:30:17;35.80;;;8.55;;
47523;SDS011;33253;42.144;25.884;2023-02-28T17:32:49;28.95;;;7.18;;
47523;SDS011;33253;42.144;25.884;2023-02-28T17:35:34;32.33;;;8.23;;
47523;SDS011;33253;42.144;25.884;2023-02-28T17:38:02;25.13;;;6.78;;
47523;SDS011;33253;42.144;25.884;2023-02-28T17:40:27;41.33;;;8.30;;
47523;SDS011;33253;42.144;25.884;2023-02-28T17:42:53;35.28;;;8.90;;
47523;SDS011;33253;42.144;25.884;2023-02-28T17:45:20;20.63;;;5.95;;